createdAt,value
2024-01-24T00:02:00.703Z,11.47
2024-01-24T00:04:27.937Z,11.50
2024-01-24T00:06:54.519Z,11.55
2024-01-24T00:09:21.157Z,11.57
2024-01-24T00:11:47.673Z,11.59
2024-01-24T00:14:14.283Z,11.58
2024-01-24T00:16:41.785Z,11.59
2024-01-24T00:19:08.388Z,11.56
2024-01-24T00:21:34.955Z,11.55
2024-01-24T00:24:01.524Z,11.51
2024-01-24T00:26:28.057Z,11.50
2024-01-24T00:28:54.609Z,11.47
2024-01-24T00:31:21.042Z,11.46
2024-01-24T00:33:47.646Z,11.45
2024-01-24T00:36:15.323Z,11.44
2024-01-24T00:38:41.777Z,11.44
2024-01-24T00:41:08.250Z,11.43
2024-01-24T00:43:34.698Z,11.40
2024-01-24T00:46:01.339Z,11.40
2024-01-24T00:48:27.932Z,11.37
2024-01-24T00:50:54.584Z,11.34
2024-01-24T00:53:21.850Z,11.34
2024-01-24T00:55:48.801Z,11.33
2024-01-24T00:58:15.454Z,11.30
2024-01-24T01:00:42.112Z,11.28
2024-01-24T01:03:09.728Z,11.28
2024-01-24T01:05:37.604Z,11.28
2024-01-24T01:08:06.347Z,11.26
2024-01-24T01:10:32.841Z,11.24
2024-01-24T01:12:59.302Z,11.23
2024-01-24T01:15:25.896Z,11.22
2024-01-24T01:17:52.852Z,11.23
2024-01-24T01:20:22.500Z,11.24
2024-01-24T01:22:49.472Z,11.21
2024-01-24T01:25:16.063Z,11.21
2024-01-24T01:27:42.678Z,11.19
2024-01-24T01:30:09.923Z,11.18
2024-01-24T01:32:36.765Z,11.19
2024-01-24T01:35:03.297Z,11.17
2024-01-24T01:37:29.820Z,11.18
2024-01-24T01:39:56.291Z,11.16
2024-01-24T01:42:23.032Z,11.17
2024-01-24T01:44:49.645Z,11.16
2024-01-24T01:47:17.282Z,11.16
2024-01-24T01:49:45.010Z,11.18
2024-01-24T01:52:12.073Z,11.18
2024-01-24T01:54:41.218Z,11.18
2024-01-24T01:57:10.028Z,11.18
2024-01-24T01:59:37.681Z,11.17
2024-01-24T02:02:05.109Z,11.16
2024-01-24T02:04:31.724Z,11.20
2024-01-24T02:06:58.823Z,11.20
2024-01-24T02:09:25.951Z,11.20
2024-01-24T02:11:52.622Z,11.21
2024-01-24T02:14:19.202Z,11.22
2024-01-24T02:16:45.833Z,11.24
2024-01-24T02:19:12.458Z,11.24
2024-01-24T02:21:39.216Z,11.27
2024-01-24T02:24:12.516Z,11.27
2024-01-24T02:26:39.968Z,11.27
2024-01-24T02:29:08.717Z,11.27
2024-01-24T02:31:35.200Z,11.26
2024-01-24T02:34:02.974Z,11.27
2024-01-24T02:36:29.727Z,11.27
2024-01-24T02:38:58.535Z,11.31
2024-01-24T02:41:25.497Z,11.31
2024-01-24T02:43:51.974Z,11.33
2024-01-24T02:46:18.521Z,11.31
2024-01-24T02:48:45.036Z,11.31
2024-01-24T02:51:11.903Z,11.30
2024-01-24T02:53:39.560Z,11.31
2024-01-24T02:56:06.225Z,11.32
2024-01-24T02:58:32.721Z,11.30
2024-01-24T03:00:59.225Z,11.32
2024-01-24T03:03:25.772Z,11.31
2024-01-24T03:05:52.414Z,11.33
2024-01-24T03:08:18.915Z,11.31
2024-01-24T03:10:45.456Z,11.31
2024-01-24T03:13:11.964Z,11.29
2024-01-24T03:15:38.574Z,11.27
2024-01-24T03:18:05.341Z,11.30
2024-01-24T03:20:31.841Z,11.28
2024-01-24T03:22:58.296Z,11.28
2024-01-24T03:25:24.873Z,11.30
2024-01-24T03:27:51.341Z,11.30
2024-01-24T03:30:18.037Z,11.28
2024-01-24T03:32:44.831Z,11.24
2024-01-24T03:35:11.594Z,11.22
2024-01-24T03:37:38.256Z,11.20
2024-01-24T03:40:06.508Z,11.17
2024-01-24T03:42:33.654Z,11.17
2024-01-24T03:45:00.332Z,11.16
2024-01-24T03:47:26.802Z,11.17
2024-01-24T03:49:53.305Z,11.16
2024-01-24T03:52:19.950Z,11.13
2024-01-24T03:54:46.492Z,11.09
2024-01-24T03:57:12.980Z,11.07
2024-01-24T03:59:39.396Z,11.06
2024-01-24T04:02:05.829Z,11.04
2024-01-24T04:04:32.456Z,11.00
2024-01-24T04:06:59.118Z,10.95
2024-01-24T04:09:25.741Z,10.91
2024-01-24T04:11:52.292Z,10.84
2024-01-24T04:14:18.883Z,10.75
2024-01-24T04:16:45.363Z,10.72
2024-01-24T04:19:11.912Z,10.65
2024-01-24T04:21:44.823Z,10.60
2024-01-24T04:24:11.579Z,10.57
2024-01-24T04:26:38.558Z,10.53
2024-01-24T04:29:05.235Z,10.52
2024-01-24T04:31:31.784Z,10.52
2024-01-24T04:33:58.459Z,10.54
2024-01-24T04:36:25.056Z,10.50
2024-01-24T04:38:51.557Z,10.46
2024-01-24T04:41:18.108Z,10.44
2024-01-24T04:43:44.605Z,10.40
2024-01-24T04:46:17.352Z,10.39
2024-01-24T04:48:45.226Z,10.36
2024-01-24T04:51:14.649Z,10.33
2024-01-24T04:53:41.374Z,10.35
2024-01-24T04:56:08.451Z,10.36
2024-01-24T04:58:34.956Z,10.38
2024-01-24T05:01:01.791Z,10.36
2024-01-24T05:03:28.837Z,10.34
2024-01-24T05:06:01.221Z,10.30
2024-01-24T05:08:33.961Z,10.25
2024-01-24T05:11:00.396Z,10.20
2024-01-24T05:13:26.825Z,10.18
2024-01-24T05:15:53.321Z,10.16
2024-01-24T05:18:20.022Z,10.12
2024-01-24T05:20:46.548Z,10.08
2024-01-24T05:23:13.025Z,10.03
2024-01-24T05:25:41.458Z,10.05
2024-01-24T05:28:09.355Z,10.05
2024-01-24T05:30:37.069Z,10.03
2024-01-24T05:33:04.401Z,10.03
2024-01-24T05:35:31.065Z,10.01
2024-01-24T05:37:57.708Z,10.02
2024-01-24T05:40:24.170Z,10.05
2024-01-24T05:42:53.311Z,10.03
2024-01-24T05:45:20.477Z,10.02
2024-01-24T05:47:47.140Z,10.03
2024-01-24T05:50:14.359Z,9.99
2024-01-24T05:52:43.952Z,9.97
2024-01-24T05:55:14.390Z,9.93
2024-01-24T05:57:41.878Z,9.89
2024-01-24T06:00:10.795Z,9.86
2024-01-24T06:02:37.785Z,9.87
2024-01-24T06:05:04.900Z,9.88
2024-01-24T06:07:32.514Z,9.88
2024-01-24T06:09:59.093Z,9.87
2024-01-24T06:12:25.683Z,9.84
2024-01-24T06:14:53.454Z,9.89
2024-01-24T06:17:19.912Z,9.84
2024-01-24T06:19:46.505Z,9.82
2024-01-24T06:22:12.938Z,9.77
2024-01-24T06:24:39.557Z,9.74
2024-01-24T06:27:06.572Z,9.72
2024-01-24T06:30:15.752Z,9.69
2024-01-24T06:32:19.339Z,9.63
2024-01-24T06:34:45.779Z,9.58
2024-01-24T06:37:14.984Z,9.54
2024-01-24T06:39:41.516Z,9.53
2024-01-24T06:42:08.049Z,9.53
2024-01-24T06:44:34.711Z,9.49
2024-01-24T06:47:01.161Z,9.48
2024-01-24T06:49:27.762Z,9.45
2024-01-24T06:51:54.414Z,9.46
2024-01-24T06:54:21.041Z,9.43
2024-01-24T06:56:47.503Z,9.39
2024-01-24T06:59:15.016Z,9.37
2024-01-24T07:01:41.504Z,9.32
2024-01-24T07:04:08.122Z,9.34
2024-01-24T07:06:34.706Z,9.33
2024-01-24T07:09:01.220Z,9.28
2024-01-24T07:11:27.665Z,9.25
2024-01-24T07:13:54.226Z,9.20
2024-01-24T07:16:20.820Z,9.18
2024-01-24T07:18:47.845Z,9.14
2024-01-24T07:21:15.474Z,9.12
2024-01-24T07:23:41.956Z,9.10
2024-01-24T07:26:08.520Z,9.06
2024-01-24T07:28:36.245Z,9.03
2024-01-24T07:31:03.654Z,8.99
2024-01-24T07:33:30.373Z,8.98
2024-01-24T07:35:56.980Z,8.96
2024-01-24T07:38:23.996Z,8.94
2024-01-24T07:40:50.493Z,8.92
2024-01-24T07:43:17.166Z,8.93
2024-01-24T07:45:43.977Z,8.91
2024-01-24T07:48:15.272Z,8.90
2024-01-24T07:50:43.417Z,8.88
2024-01-24T07:53:10.535Z,8.86
2024-01-24T07:55:46.818Z,8.85
2024-01-24T07:58:20.686Z,8.85
2024-01-24T08:00:47.176Z,8.83
2024-01-24T08:03:14.303Z,8.84
2024-01-24T08:05:40.900Z,8.87
2024-01-24T08:08:07.697Z,8.86
2024-01-24T08:10:34.261Z,8.89
2024-01-24T08:13:00.990Z,8.93
2024-01-24T08:15:27.850Z,8.92
2024-01-24T08:17:55.427Z,8.96
2024-01-24T08:20:22.992Z,8.94
2024-01-24T08:22:50.071Z,8.93
2024-01-24T08:25:16.749Z,8.92
2024-01-24T08:27:43.303Z,8.94
2024-01-24T08:30:09.909Z,8.92
2024-01-24T08:32:41.403Z,8.98
2024-01-24T08:35:09.432Z,8.97
2024-01-24T08:37:35.953Z,8.95
2024-01-24T08:40:03.199Z,8.95
2024-01-24T08:42:30.162Z,8.96
2024-01-24T08:44:57.716Z,8.97
2024-01-24T08:47:24.202Z,8.98
2024-01-24T08:49:51.650Z,9.00
2024-01-24T08:52:18.302Z,9.00
2024-01-24T08:54:45.268Z,9.01
2024-01-24T08:57:12.344Z,9.03
2024-01-24T08:59:39.765Z,9.05
2024-01-24T09:02:08.340Z,9.07
2024-01-24T09:04:37.800Z,9.08
2024-01-24T09:07:05.271Z,9.12
2024-01-24T09:09:33.829Z,9.15
2024-01-24T09:12:01.118Z,9.12
2024-01-24T09:14:28.080Z,9.11
2024-01-24T09:16:55.002Z,9.12
2024-01-24T09:19:22.144Z,9.15
2024-01-24T09:21:51.757Z,9.16
2024-01-24T09:24:18.633Z,9.19
2024-01-24T09:26:45.379Z,9.22
2024-01-24T09:29:13.439Z,9.25
2024-01-24T09:31:44.601Z,9.31
2024-01-24T09:34:15.278Z,9.35
2024-01-24T09:36:42.253Z,9.39
2024-01-24T09:39:10.440Z,9.41
2024-01-24T09:41:42.004Z,9.44
2024-01-24T09:44:15.509Z,9.46
2024-01-24T09:46:42.019Z,9.49
2024-01-24T09:49:08.945Z,9.55
2024-01-24T09:51:36.348Z,9.55
2024-01-24T09:54:07.625Z,9.57
2024-01-24T09:56:38.678Z,9.63
2024-01-24T09:59:06.437Z,9.67
2024-01-24T10:01:35.665Z,9.69
2024-01-24T10:04:02.957Z,9.72
2024-01-24T10:06:30.173Z,9.75
2024-01-24T10:09:00.438Z,9.81
2024-01-24T10:11:27.808Z,9.84
2024-01-24T10:13:58.609Z,9.90
2024-01-24T10:16:27.297Z,9.95
2024-01-24T10:18:58.047Z,10.02
2024-01-24T10:21:26.656Z,10.04
2024-01-24T10:23:56.510Z,10.03
2024-01-24T10:26:23.235Z,10.02
2024-01-24T10:28:50.314Z,10.03
2024-01-24T10:31:21.593Z,10.02
2024-01-24T10:33:49.921Z,10.01
2024-01-24T10:36:26.056Z,9.99
2024-01-24T10:39:04.885Z,9.96
2024-01-24T10:41:33.419Z,9.93
2024-01-24T10:44:07.197Z,9.96
2024-01-24T10:46:34.452Z,9.96
2024-01-24T10:49:02.639Z,9.97
2024-01-24T10:51:29.625Z,10.04
2024-01-24T10:53:56.905Z,10.07
2024-01-24T10:56:26.012Z,10.10
2024-01-24T10:58:52.940Z,10.09
2024-01-24T11:01:19.816Z,10.12
2024-01-24T11:03:51.373Z,10.18
2024-01-24T11:06:19.823Z,10.20
2024-01-24T11:09:01.788Z,10.23
2024-01-24T11:11:33.095Z,10.27
2024-01-24T11:14:00.336Z,10.27
2024-01-24T11:16:26.716Z,10.27
2024-01-24T11:18:53.896Z,10.25
2024-01-24T11:21:24.148Z,10.24
2024-01-24T11:23:50.742Z,10.24
2024-01-24T11:26:20.046Z,10.26
2024-01-24T11:28:47.583Z,10.28
2024-01-24T11:31:15.322Z,10.28
2024-01-24T11:34:11.160Z,10.30
2024-01-24T11:36:49.185Z,10.33
2024-01-24T11:39:40.984Z,10.36
2024-01-24T11:42:31.481Z,10.30
2024-01-24T11:45:15.542Z,10.28
2024-01-24T11:47:42.344Z,10.24
2024-01-24T11:50:12.217Z,10.22
2024-01-24T11:52:39.463Z,10.20
2024-01-24T11:55:06.904Z,10.20
2024-01-24T11:57:33.485Z,10.24
2024-01-24T12:00:00.039Z,10.29
2024-01-24T12:02:27.052Z,10.33
2024-01-24T12:04:54.110Z,10.37
2024-01-24T12:07:20.848Z,10.38
2024-01-24T12:09:49.510Z,10.39
2024-01-24T12:12:17.359Z,10.39
2024-01-24T12:14:44.581Z,10.41
2024-01-24T12:17:11.677Z,10.42
2024-01-24T12:19:38.655Z,10.43
2024-01-24T12:22:10.394Z,10.49
2024-01-24T12:24:43.578Z,10.50
2024-01-24T12:27:10.809Z,10.49
2024-01-24T12:29:37.512Z,10.48
2024-01-24T12:32:06.299Z,10.47
2024-01-24T12:34:33.387Z,10.48
2024-01-24T12:37:03.403Z,10.48
2024-01-24T12:39:33.783Z,10.45
2024-01-24T12:42:03.563Z,10.45
2024-01-24T12:44:30.720Z,10.44
2024-01-24T12:46:58.784Z,10.42
2024-01-24T12:49:26.535Z,10.44
2024-01-24T12:51:54.607Z,10.41
2024-01-24T12:54:22.777Z,10.38
2024-01-24T12:56:49.954Z,10.38
2024-01-24T12:59:18.297Z,10.35
2024-01-24T13:01:45.004Z,10.35
2024-01-24T13:04:11.779Z,10.34
2024-01-24T13:06:38.796Z,10.32
2024-01-24T13:09:06.191Z,10.29
2024-01-24T13:11:33.280Z,10.27
2024-01-24T13:13:59.989Z,10.23
2024-01-24T13:16:26.875Z,10.22
2024-01-24T13:18:53.947Z,10.19
2024-01-24T13:21:20.562Z,10.18
2024-01-24T13:23:47.090Z,10.18
2024-01-24T13:26:13.949Z,10.16
2024-01-24T13:28:40.932Z,10.16
2024-01-24T13:31:07.489Z,10.17
2024-01-24T13:33:35.191Z,10.18
2024-01-24T13:36:02.400Z,10.18
2024-01-24T13:38:29.959Z,10.18
2024-01-24T13:40:56.907Z,10.19
2024-01-24T13:43:23.719Z,10.18
2024-01-24T13:45:50.439Z,10.18
2024-01-24T13:48:17.920Z,10.17
2024-01-24T13:50:47.399Z,10.18
2024-01-24T13:53:13.919Z,10.20
2024-01-24T13:55:41.085Z,10.17
2024-01-24T13:58:07.929Z,10.18
2024-01-24T14:00:34.504Z,10.15
2024-01-24T14:03:01.382Z,10.11
2024-01-24T14:05:28.147Z,10.11
2024-01-24T14:07:54.701Z,10.09
2024-01-24T14:10:21.469Z,10.07
2024-01-24T14:12:48.278Z,10.04
2024-01-24T14:15:24.417Z,10.01
2024-01-24T14:17:59.699Z,10.00
2024-01-24T14:20:26.504Z,9.98
2024-01-24T14:22:53.066Z,9.94
2024-01-24T14:25:19.680Z,9.90
2024-01-24T14:27:46.240Z,9.87
2024-01-24T14:30:13.610Z,9.85
2024-01-24T14:32:40.325Z,9.83
2024-01-24T14:35:08.078Z,9.80
2024-01-24T14:37:35.817Z,9.79
2024-01-24T14:40:02.386Z,9.77
2024-01-24T14:42:28.887Z,9.77
2024-01-24T14:44:55.510Z,9.75
2024-01-24T14:47:22.011Z,9.72
2024-01-24T14:49:48.588Z,9.74
2024-01-24T14:52:16.377Z,9.71
2024-01-24T14:54:42.975Z,9.70
2024-01-24T14:57:26.910Z,9.70
2024-01-24T14:59:53.442Z,9.67
2024-01-24T15:02:19.927Z,9.67
2024-01-24T15:04:46.523Z,9.64
2024-01-24T15:07:13.365Z,9.61
2024-01-24T15:09:39.882Z,9.59
2024-01-24T15:12:06.853Z,9.57
2024-01-24T15:14:33.296Z,9.55
2024-01-24T15:16:59.708Z,9.52
2024-01-24T15:19:26.937Z,9.51
2024-01-24T15:21:53.950Z,9.48
2024-01-24T15:24:20.922Z,9.45
2024-01-24T15:26:47.619Z,9.43
2024-01-24T15:29:14.160Z,9.42
2024-01-24T15:31:40.674Z,9.40
2024-01-24T15:34:08.028Z,9.38
2024-01-24T15:36:35.947Z,9.38
2024-01-24T15:39:02.509Z,9.33
2024-01-24T15:41:29.231Z,9.31
2024-01-24T15:43:57.445Z,9.28
2024-01-24T15:46:26.348Z,9.27
2024-01-24T15:48:53.047Z,9.23
2024-01-24T15:51:19.630Z,9.22
2024-01-24T15:53:46.192Z,9.20
2024-01-24T15:56:13.164Z,9.15
2024-01-24T15:58:40.213Z,9.14
2024-01-24T16:01:07.107Z,9.10
2024-01-24T16:03:36.414Z,9.06
2024-01-24T16:06:05.094Z,9.04
2024-01-24T16:08:31.814Z,9.03
2024-01-24T16:10:59.802Z,9.00
2024-01-24T16:13:30.559Z,8.98
2024-01-24T16:15:57.602Z,8.97
2024-01-24T16:18:24.362Z,9.00
2024-01-24T16:20:50.906Z,8.98
2024-01-24T16:23:17.437Z,8.96
2024-01-24T16:25:43.983Z,8.94
2024-01-24T16:28:12.582Z,8.93
2024-01-24T16:30:42.556Z,8.92
2024-01-24T16:33:09.311Z,8.93
2024-01-24T16:35:35.921Z,8.91
2024-01-24T16:38:02.490Z,8.93
2024-01-24T16:40:28.968Z,8.93
2024-01-24T16:42:56.874Z,8.90
2024-01-24T16:45:23.979Z,8.88
2024-01-24T16:47:51.098Z,8.90
2024-01-24T16:50:18.064Z,8.87
2024-01-24T16:52:47.275Z,8.85
2024-01-24T16:55:13.940Z,8.84
2024-01-24T16:57:40.739Z,8.84
2024-01-24T17:00:07.795Z,8.84
2024-01-24T17:02:42.112Z,8.82
2024-01-24T17:05:12.943Z,8.82
2024-01-24T17:07:39.462Z,8.79
2024-01-24T17:10:06.759Z,8.78
2024-01-24T17:12:33.863Z,8.78
2024-01-24T17:15:00.636Z,8.78
2024-01-24T17:17:29.913Z,8.78
2024-01-24T17:19:57.148Z,8.78
2024-01-24T17:22:24.772Z,8.80
2024-01-24T17:24:51.555Z,8.82
2024-01-24T17:27:17.957Z,8.79
2024-01-24T17:29:47.586Z,8.73
2024-01-24T17:32:14.215Z,8.73
2024-01-24T17:34:44.493Z,8.71
2024-01-24T17:37:11.452Z,8.72
2024-01-24T17:39:38.296Z,8.72
2024-01-24T17:42:05.111Z,8.72
2024-01-24T17:44:34.054Z,8.71
2024-01-24T17:47:00.651Z,8.71
2024-01-24T17:49:27.632Z,8.70
2024-01-24T17:51:54.599Z,8.70
2024-01-24T17:54:21.910Z,8.68
2024-01-24T17:56:48.385Z,8.67
2024-01-24T17:59:14.882Z,8.66
2024-01-24T18:01:41.600Z,8.63
2024-01-24T18:04:08.279Z,8.62
2024-01-24T18:06:34.927Z,8.59
2024-01-24T18:09:01.608Z,8.58
2024-01-24T18:11:28.097Z,8.56
2024-01-24T18:13:54.567Z,8.55
2024-01-24T18:16:21.099Z,8.53
2024-01-24T18:18:48.843Z,8.50
2024-01-24T18:21:15.391Z,8.49
2024-01-24T18:23:41.811Z,8.47
2024-01-24T18:26:08.355Z,8.43
2024-01-24T18:28:34.788Z,8.41
2024-01-24T18:31:01.232Z,8.38
2024-01-24T18:33:27.972Z,8.37
2024-01-24T18:35:54.556Z,8.34
2024-01-24T18:38:21.029Z,8.32
2024-01-24T18:40:47.933Z,8.28
2024-01-24T18:43:14.493Z,8.25
2024-01-24T18:45:41.041Z,8.24
2024-01-24T18:48:08.029Z,8.22
2024-01-24T18:50:34.723Z,8.19
2024-01-24T18:53:01.280Z,8.17
2024-01-24T18:55:28.127Z,8.16
2024-01-24T18:57:54.926Z,8.14
2024-01-24T19:00:22.382Z,8.13
2024-01-24T19:02:49.566Z,8.12
2024-01-24T19:05:23.651Z,8.10
2024-01-24T19:07:57.009Z,8.09
2024-01-24T19:10:24.488Z,8.09
2024-01-24T19:12:51.028Z,8.05
2024-01-24T19:15:20.931Z,8.03
2024-01-24T19:17:47.680Z,8.00
2024-01-24T19:20:15.903Z,7.99
2024-01-24T19:22:42.569Z,7.95
2024-01-24T19:25:10.802Z,7.95
2024-01-24T19:27:37.360Z,7.93
2024-01-24T19:30:04.337Z,7.93
2024-01-24T19:32:30.945Z,7.94
2024-01-24T19:34:59.590Z,7.92
2024-01-24T19:37:27.079Z,7.91
2024-01-24T19:39:53.784Z,7.91
2024-01-24T19:42:23.805Z,7.89
2024-01-24T19:44:51.486Z,7.88
2024-01-24T19:47:18.090Z,7.86
2024-01-24T19:49:44.629Z,7.85
2024-01-24T19:52:12.459Z,7.84
2024-01-24T19:54:39.522Z,7.80
2024-01-24T19:57:06.431Z,7.80
2024-01-24T19:59:32.925Z,7.81
2024-01-24T20:01:59.374Z,7.78
2024-01-24T20:04:25.901Z,7.78
2024-01-24T20:06:52.587Z,7.78
2024-01-24T20:09:19.082Z,7.77
2024-01-24T20:11:45.553Z,7.76
2024-01-24T20:14:12.186Z,7.78
2024-01-24T20:16:38.722Z,7.77
2024-01-24T20:19:05.433Z,7.77
2024-01-24T20:21:32.192Z,7.79
2024-01-24T20:23:58.665Z,7.80
2024-01-24T20:26:25.772Z,7.79
2024-01-24T20:28:52.341Z,7.78
2024-01-24T20:31:18.858Z,7.79
2024-01-24T20:33:45.496Z,7.79
2024-01-24T20:36:12.889Z,7.82
2024-01-24T20:38:41.936Z,7.80
2024-01-24T20:41:09.037Z,7.85
2024-01-24T20:43:40.221Z,7.83
2024-01-24T20:46:08.458Z,7.79
2024-01-24T20:48:36.288Z,7.82
2024-01-24T20:51:04.183Z,7.84
2024-01-24T20:53:31.402Z,7.83
2024-01-24T20:55:58.466Z,7.82
2024-01-24T20:58:25.735Z,7.84
2024-01-24T21:00:52.425Z,7.84
2024-01-24T21:03:19.111Z,7.83
2024-01-24T21:05:46.360Z,7.84
2024-01-24T21:08:13.235Z,7.84
2024-01-24T21:10:42.345Z,7.86
2024-01-24T21:13:15.476Z,7.88
2024-01-24T21:15:42.029Z,7.88
2024-01-24T21:18:09.769Z,7.89
2024-01-24T21:20:36.469Z,7.89
2024-01-24T21:23:03.926Z,7.88
2024-01-24T21:25:31.654Z,7.91
2024-01-24T21:27:58.206Z,7.93
2024-01-24T21:30:26.213Z,7.97
2024-01-24T21:32:53.688Z,7.94
2024-01-24T21:35:20.279Z,7.95
2024-01-24T21:37:46.756Z,7.94
2024-01-24T21:40:13.648Z,7.94
2024-01-24T21:42:40.169Z,7.97
2024-01-24T21:45:07.861Z,7.99
2024-01-24T21:47:34.348Z,8.03
2024-01-24T21:50:00.925Z,8.08
2024-01-24T21:52:27.586Z,8.08
2024-01-24T21:54:56.811Z,8.07
2024-01-24T21:57:24.610Z,8.09
2024-01-24T21:59:51.403Z,8.10
2024-01-24T22:02:18.037Z,8.09
2024-01-24T22:04:44.744Z,8.10
2024-01-24T22:07:13.893Z,8.15
2024-01-24T22:09:40.377Z,8.18
2024-01-24T22:12:10.812Z,8.18
2024-01-24T22:14:37.274Z,8.15
2024-01-24T22:17:03.857Z,8.16
2024-01-24T22:19:30.341Z,8.13
2024-01-24T22:21:56.867Z,8.14
2024-01-24T22:24:25.486Z,8.15
2024-01-24T22:26:52.164Z,8.15
2024-01-24T22:29:18.818Z,8.16
2024-01-24T22:31:45.301Z,8.16
2024-01-24T22:34:11.847Z,8.15
2024-01-24T22:36:38.434Z,8.13
2024-01-24T22:39:05.129Z,8.10
2024-01-24T22:41:31.822Z,8.11
2024-01-24T22:43:58.325Z,8.11
2024-01-24T22:46:27.955Z,8.09
2024-01-24T22:48:54.875Z,8.11
2024-01-24T22:51:21.652Z,8.09
2024-01-24T22:53:48.087Z,8.10
2024-01-24T22:56:14.664Z,8.07
2024-01-24T22:58:41.090Z,8.06
2024-01-24T23:01:07.744Z,8.05
2024-01-24T23:03:34.340Z,8.06
2024-01-24T23:06:00.852Z,8.06
2024-01-24T23:08:27.434Z,8.04
2024-01-24T23:10:53.917Z,7.99
2024-01-24T23:13:20.495Z,7.94
2024-01-24T23:15:47.115Z,7.96
2024-01-24T23:18:14.231Z,7.93
2024-01-24T23:20:40.727Z,7.87
2024-01-24T23:23:13.632Z,7.84
2024-01-24T23:25:43.211Z,7.74
2024-01-24T23:28:12.851Z,7.68
2024-01-24T23:30:39.380Z,7.63
2024-01-24T23:33:06.150Z,7.60
2024-01-24T23:35:35.389Z,7.56
2024-01-24T23:38:01.962Z,7.55
2024-01-24T23:40:28.474Z,7.47
2024-01-24T23:42:54.976Z,7.42
2024-01-24T23:45:23.486Z,7.36
2024-01-24T23:47:50.128Z,7.33
2024-01-24T23:50:17.876Z,7.27
2024-01-24T23:52:44.676Z,7.23
2024-01-24T23:55:11.466Z,7.19
2024-01-24T23:57:38.009Z,7.15
